Eden, Pennsylvania
Current Conditions -  °F | °C
As of 3:16 AM on Friday 19 Dec 2014 (Local Time) from KLNS Reporting Station
Overcast Overcast  
Wind Chill: 25°   Ceiling: 3100
Heat Index: 33°   Visibility: 10mi
Dew Point: 24°   Wind: 10mph
Humidity: 70%   Direction: 280°W
Pressure: 30.05"   Gusts: NA
Location:  40.0734°N, 76.3168°W
Report Text: KLNS 190816Z AUTO 28009KT 10SM OVC031 01/M04 A3005 RMK AO2 T00061044
Loading
Personal Weather Stations






























Interactive Weather Map New forecast layout! Learn more

10-Day Weather Forecast

Advertisements
Track Severe Weather on mobile